sensor_id;sensor_type;location;lat;lon;timestamp;pressure;altitude;pressure_sealevel;temperature;humidity
55442;BME280;41313;58.740;50.174;2022-11-20T00:00:06;101358.63;;;-7.31;50.19
55442;BME280;41313;58.740;50.174;2022-11-20T00:05:09;101335.03;;;-7.24;50.55
55442;BME280;41313;58.740;50.174;2022-11-20T00:10:11;101341.88;;;-7.23;50.24
55442;BME280;41313;58.740;50.174;2022-11-20T00:15:14;101340.25;;;-7.21;50.14
55442;BME280;41313;58.740;50.174;2022-11-20T00:20:16;101339.00;;;-6.61;48.66
55442;BME280;41313;58.740;50.174;2022-11-20T00:25:18;101320.59;;;-6.77;48.93
55442;BME280;41313;58.740;50.174;2022-11-20T00:30:20;101338.00;;;-7.13;49.51
55442;BME280;41313;58.740;50.174;2022-11-20T00:35:22;101330.31;;;-6.67;48.98
55442;BME280;41313;58.740;50.174;2022-11-20T00:40:23;101325.72;;;-6.99;49.33
55442;BME280;41313;58.740;50.174;2022-11-20T00:45:25;101315.72;;;-6.93;49.47
55442;BME280;41313;58.740;50.174;2022-11-20T00:50:27;101303.97;;;-6.88;48.66
55442;BME280;41313;58.740;50.174;2022-11-20T00:55:29;101306.94;;;-6.77;48.67
55442;BME280;41313;58.740;50.174;2022-11-20T01:00:31;101309.28;;;-7.06;48.37
55442;BME280;41313;58.740;50.174;2022-11-20T01:05:34;101306.53;;;-6.88;48.53
55442;BME280;41313;58.740;50.174;2022-11-20T01:10:37;101301.59;;;-6.83;48.82
55442;BME280;41313;58.740;50.174;2022-11-20T01:15:39;101298.97;;;-6.85;48.69
55442;BME280;41313;58.740;50.174;2022-11-20T01:20:41;101305.03;;;-6.83;48.40
55442;BME280;41313;58.740;50.174;2022-11-20T01:25:43;101295.84;;;-7.02;47.84
55442;BME280;41313;58.740;50.174;2022-11-20T01:30:45;101279.38;;;-7.08;49.01
55442;BME280;41313;58.740;50.174;2022-11-20T01:35:47;101272.22;;;-7.19;48.64
55442;BME280;41313;58.740;50.174;2022-11-20T01:40:55;101269.66;;;-7.19;48.64
55442;BME280;41313;58.740;50.174;2022-11-20T01:51:25;101276.94;;;-7.05;47.97
55442;BME280;41313;58.740;50.174;2022-11-20T01:56:32;101282.44;;;-7.41;48.04
55442;BME280;41313;58.740;50.174;2022-11-20T02:01:35;101284.88;;;-7.67;48.32
55442;BME280;41313;58.740;50.174;2022-11-20T02:06:46;101285.91;;;-7.84;47.64
55442;BME280;41313;58.740;50.174;2022-11-20T02:11:49;101276.78;;;-7.77;47.06
55442;BME280;41313;58.740;50.174;2022-11-20T02:16:52;101280.97;;;-7.80;47.12
55442;BME280;41313;58.740;50.174;2022-11-20T02:27:10;101273.63;;;-7.72;47.31
55442;BME280;41313;58.740;50.174;2022-11-20T02:32:25;101268.84;;;-7.63;46.27
55442;BME280;41313;58.740;50.174;2022-11-20T02:37:32;101271.00;;;-7.73;45.93
55442;BME280;41313;58.740;50.174;2022-11-20T02:42:36;101275.06;;;-7.56;46.47
55442;BME280;41313;58.740;50.174;2022-11-20T02:47:39;101265.38;;;-7.20;44.53
55442;BME280;41313;58.740;50.174;2022-11-20T02:52:41;101266.47;;;-7.36;44.83
55442;BME280;41313;58.740;50.174;2022-11-20T02:57:43;101266.09;;;-7.46;44.72
55442;BME280;41313;58.740;50.174;2022-11-20T03:02:45;101255.81;;;-7.48;44.29
55442;BME280;41313;58.740;50.174;2022-11-20T03:07:47;101252.38;;;-7.48;44.91
55442;BME280;41313;58.740;50.174;2022-11-20T03:12:54;101247.38;;;-7.45;44.78
55442;BME280;41313;58.740;50.174;2022-11-20T03:17:56;101247.38;;;-7.45;44.35
55442;BME280;41313;58.740;50.174;2022-11-20T03:22:59;101237.16;;;-7.45;44.94
55442;BME280;41313;58.740;50.174;2022-11-20T03:28:01;101235.31;;;-7.49;44.76
55442;BME280;41313;58.740;50.174;2022-11-20T03:33:03;101226.72;;;-7.51;44.01
55442;BME280;41313;58.740;50.174;2022-11-20T03:38:05;101227.41;;;-7.56;44.38
55442;BME280;41313;58.740;50.174;2022-11-20T03:43:09;101214.78;;;-7.52;44.04
55442;BME280;41313;58.740;50.174;2022-11-20T03:48:11;101212.69;;;-7.63;43.52
55442;BME280;41313;58.740;50.174;2022-11-20T03:53:16;101216.41;;;-7.77;43.83
55442;BME280;41313;58.740;50.174;2022-11-20T03:58:18;101227.19;;;-7.84;44.58
55442;BME280;41313;58.740;50.174;2022-11-20T04:03:20;101232.72;;;-8.17;44.69
55442;BME280;41313;58.740;50.174;2022-11-20T04:08:22;101223.06;;;-8.24;44.46
55442;BME280;41313;58.740;50.174;2022-11-20T04:13:24;101219.97;;;-8.17;44.23
55442;BME280;41313;58.740;50.174;2022-11-20T04:18:26;101225.38;;;-8.30;44.47
55442;BME280;41313;58.740;50.174;2022-11-20T04:23:28;101224.25;;;-8.38;44.59
55442;BME280;41313;58.740;50.174;2022-11-20T04:28:30;101223.22;;;-8.42;45.04
55442;BME280;41313;58.740;50.174;2022-11-20T04:33:33;101231.69;;;-8.64;45.38
55442;BME280;41313;58.740;50.174;2022-11-20T04:38:36;101224.81;;;-8.45;45.19
55442;BME280;41313;58.740;50.174;2022-11-20T04:43:38;101215.97;;;-8.54;45.02
55442;BME280;41313;58.740;50.174;2022-11-20T04:48:40;101206.69;;;-8.52;44.28
55442;BME280;41313;58.740;50.174;2022-11-20T04:53:42;101199.75;;;-8.33;44.58
55442;BME280;41313;58.740;50.174;2022-11-20T04:58:44;101193.47;;;-8.43;45.52
55442;BME280;41313;58.740;50.174;2022-11-20T05:03:46;101199.91;;;-8.51;45.20
55442;BME280;41313;58.740;50.174;2022-11-20T05:08:49;101202.66;;;-8.46;45.42
55442;BME280;41313;58.740;50.174;2022-11-20T05:13:51;101202.44;;;-8.53;45.12
55442;BME280;41313;58.740;50.174;2022-11-20T05:18:54;101193.66;;;-8.38;45.31
55442;BME280;41313;58.740;50.174;2022-11-20T05:23:56;101185.34;;;-8.33;44.85
55442;BME280;41313;58.740;50.174;2022-11-20T05:28:58;101183.13;;;-8.46;45.15
55442;BME280;41313;58.740;50.174;2022-11-20T05:34:00;101187.38;;;-8.46;45.90
55442;BME280;41313;58.740;50.174;2022-11-20T05:39:02;101185.56;;;-8.70;45.41
55442;BME280;41313;58.740;50.174;2022-11-20T05:44:04;101196.13;;;-8.61;45.71
55442;BME280;41313;58.740;50.174;2022-11-20T05:49:06;101177.13;;;-8.26;45.20
55442;BME280;41313;58.740;50.174;2022-11-20T05:54:08;101176.56;;;-7.96;44.97
55442;BME280;41313;58.740;50.174;2022-11-20T05:59:10;101171.28;;;-7.78;44.55
55442;BME280;41313;58.740;50.174;2022-11-20T06:04:12;101171.13;;;-7.59;44.99
55442;BME280;41313;58.740;50.174;2022-11-20T06:09:14;101164.16;;;-7.40;44.20
55442;BME280;41313;58.740;50.174;2022-11-20T06:14:15;101161.09;;;-7.30;44.66
55442;BME280;41313;58.740;50.174;2022-11-20T06:19:18;101171.63;;;-7.21;44.58
55442;BME280;41313;58.740;50.174;2022-11-20T06:24:20;101159.66;;;-6.98;44.19
55442;BME280;41313;58.740;50.174;2022-11-20T06:29:22;101155.41;;;-6.97;44.23
55442;BME280;41313;58.740;50.174;2022-11-20T06:34:24;101158.06;;;-6.94;44.25
55442;BME280;41313;58.740;50.174;2022-11-20T06:39:25;101156.56;;;-6.88;45.54
55442;BME280;41313;58.740;50.174;2022-11-20T06:44:27;101165.94;;;-6.88;44.62
55442;BME280;41313;58.740;50.174;2022-11-20T06:49:29;101162.69;;;-6.84;44.73
55442;BME280;41313;58.740;50.174;2022-11-20T06:54:31;101146.19;;;-6.67;44.72
55442;BME280;41313;58.740;50.174;2022-11-20T06:59:33;101140.19;;;-6.69;44.82
55442;BME280;41313;58.740;50.174;2022-11-20T07:04:35;101143.59;;;-6.41;44.73
55442;BME280;41313;58.740;50.174;2022-11-20T07:09:37;101134.91;;;-6.46;44.73
55442;BME280;41313;58.740;50.174;2022-11-20T07:14:39;101139.59;;;-6.33;45.02
55442;BME280;41313;58.740;50.174;2022-11-20T07:19:41;101125.31;;;-6.25;44.27
55442;BME280;41313;58.740;50.174;2022-11-20T07:24:44;101125.22;;;-6.01;44.14
55442;BME280;41313;58.740;50.174;2022-11-20T07:29:46;101128.81;;;-5.94;43.91
55442;BME280;41313;58.740;50.174;2022-11-20T07:34:48;101122.66;;;-5.69;43.83
55442;BME280;41313;58.740;50.174;2022-11-20T07:39:50;101128.88;;;-5.61;44.29
55442;BME280;41313;58.740;50.174;2022-11-20T07:44:52;101117.75;;;-5.30;44.17
55442;BME280;41313;58.740;50.174;2022-11-20T07:49:54;101106.66;;;-5.30;44.96
55442;BME280;41313;58.740;50.174;2022-11-20T07:54:56;101115.78;;;-5.08;44.35
55442;BME280;41313;58.740;50.174;2022-11-20T07:59:58;101120.69;;;-4.83;44.29
55442;BME280;41313;58.740;50.174;2022-11-20T08:05:03;101116.88;;;-4.64;44.51
55442;BME280;41313;58.740;50.174;2022-11-20T08:10:07;101109.34;;;-4.56;44.04
55442;BME280;41313;58.740;50.174;2022-11-20T08:15:10;101111.84;;;-4.61;44.28
55442;BME280;41313;58.740;50.174;2022-11-20T08:20:12;101109.84;;;-4.71;45.01
55442;BME280;41313;58.740;50.174;2022-11-20T08:25:14;101113.38;;;-4.31;44.29
55442;BME280;41313;58.740;50.174;2022-11-20T08:30:15;101120.09;;;-4.35;44.41
55442;BME280;41313;58.740;50.174;2022-11-20T08:35:17;101111.03;;;-4.20;44.22
55442;BME280;41313;58.740;50.174;2022-11-20T08:40:19;101105.09;;;-4.18;44.49
55442;BME280;41313;58.740;50.174;2022-11-20T08:45:21;101096.19;;;-3.94;44.13
55442;BME280;41313;58.740;50.174;2022-11-20T08:50:23;101098.94;;;-3.86;44.09
55442;BME280;41313;58.740;50.174;2022-11-20T08:55:24;101088.91;;;-3.74;43.71
55442;BME280;41313;58.740;50.174;2022-11-20T09:00:26;101081.81;;;-3.84;44.05
55442;BME280;41313;58.740;50.174;2022-11-20T09:05:28;101085.19;;;-3.88;44.10
55442;BME280;41313;58.740;50.174;2022-11-20T09:10:30;101085.25;;;-3.85;44.06
55442;BME280;41313;58.740;50.174;2022-11-20T09:15:32;101080.34;;;-3.73;44.19
55442;BME280;41313;58.740;50.174;2022-11-20T09:20:35;101089.72;;;-3.75;44.27
55442;BME280;41313;58.740;50.174;2022-11-20T09:25:36;101085.03;;;-3.52;44.34
55442;BME280;41313;58.740;50.174;2022-11-20T09:30:38;101083.78;;;-3.27;43.68
55442;BME280;41313;58.740;50.174;2022-11-20T09:35:40;101072.06;;;-3.11;42.99
55442;BME280;41313;58.740;50.174;2022-11-20T09:41:06;101067.47;;;-3.29;43.26
55442;BME280;41313;58.740;50.174;2022-11-20T09:46:32;101068.91;;;-3.44;43.50
55442;BME280;41313;58.740;50.174;2022-11-20T09:51:46;101059.09;;;-3.17;43.21
55442;BME280;41313;58.740;50.174;2022-11-20T09:57:10;101051.59;;;-3.04;43.04
55442;BME280;41313;58.740;50.174;2022-11-20T10:07:41;101030.09;;;-3.09;43.40
55442;BME280;41313;58.740;50.174;2022-11-20T10:18:36;101021.06;;;-2.84;43.12
55442;BME280;41313;58.740;50.174;2022-11-20T10:23:59;101001.47;;;-2.76;43.58
55442;BME280;41313;58.740;50.174;2022-11-20T10:29:13;101004.16;;;-2.65;43.15
55442;BME280;41313;58.740;50.174;2022-11-20T10:44:28;101006.84;;;-2.59;42.99
55442;BME280;41313;58.740;50.174;2022-11-20T10:49:52;101014.50;;;-2.63;42.77
55442;BME280;41313;58.740;50.174;2022-11-20T10:55:02;101010.75;;;-2.85;43.27
55442;BME280;41313;58.740;50.174;2022-11-20T11:00:10;101015.63;;;-3.01;43.17
55442;BME280;41313;58.740;50.174;2022-11-20T11:11:03;100992.31;;;-3.13;43.46
55442;BME280;41313;58.740;50.174;2022-11-20T11:16:23;100990.59;;;-3.12;43.90
55442;BME280;41313;58.740;50.174;2022-11-20T11:21:26;100989.53;;;-3.25;44.19
55442;BME280;41313;58.740;50.174;2022-11-20T11:26:28;100986.47;;;-3.01;43.83
55442;BME280;41313;58.740;50.174;2022-11-20T11:31:32;100976.88;;;-3.13;44.49
55442;BME280;41313;58.740;50.174;2022-11-20T11:36:35;100981.19;;;-3.12;43.78
55442;BME280;41313;58.740;50.174;2022-11-20T11:41:37;100981.97;;;-3.16;44.01
55442;BME280;41313;58.740;50.174;2022-11-20T11:46:41;100979.84;;;-3.41;44.22
55442;BME280;41313;58.740;50.174;2022-11-20T11:57:05;100969.88;;;-3.23;44.26
55442;BME280;41313;58.740;50.174;2022-11-20T12:03:09;100980.16;;;-3.23;43.99
55442;BME280;41313;58.740;50.174;2022-11-20T12:07:45;100984.09;;;-3.44;44.30
55442;BME280;41313;58.740;50.174;2022-11-20T12:12:52;100982.06;;;-3.61;44.79
55442;BME280;41313;58.740;50.174;2022-11-20T12:17:55;100983.78;;;-3.60;44.32
55442;BME280;41313;58.740;50.174;2022-11-20T12:23:16;100981.00;;;-3.74;44.51
55442;BME280;41313;58.740;50.174;2022-11-20T12:28:40;100979.53;;;-4.05;44.90
55442;BME280;41313;58.740;50.174;2022-11-20T12:39:31;100977.09;;;-3.99;44.38
55442;BME280;41313;58.740;50.174;2022-11-20T12:45:02;100979.91;;;-4.29;45.51
55442;BME280;41313;58.740;50.174;2022-11-20T12:50:33;100972.81;;;-4.43;44.87
55442;BME280;41313;58.740;50.174;2022-11-20T12:55:42;100975.69;;;-4.68;45.02
55442;BME280;41313;58.740;50.174;2022-11-20T13:01:45;100970.16;;;-4.87;45.84
55442;BME280;41313;58.740;50.174;2022-11-20T13:06:39;100958.75;;;-4.99;45.27
55442;BME280;41313;58.740;50.174;2022-11-20T13:16:55;100951.38;;;-5.23;44.83
55442;BME280;41313;58.740;50.174;2022-11-20T13:22:00;100944.41;;;-5.28;44.86
55442;BME280;41313;58.740;50.174;2022-11-20T13:27:17;100954.22;;;-5.10;44.69
55442;BME280;41313;58.740;50.174;2022-11-20T13:32:24;100948.47;;;-5.36;45.09
55442;BME280;41313;58.740;50.174;2022-11-20T13:37:35;100942.91;;;-5.54;45.24
55442;BME280;41313;58.740;50.174;2022-11-20T13:42:54;100950.19;;;-5.71;45.42
55442;BME280;41313;58.740;50.174;2022-11-20T13:47:58;100948.03;;;-5.54;45.06
55442;BME280;41313;58.740;50.174;2022-11-20T14:03:44;100947.56;;;-5.73;43.97
55442;BME280;41313;58.740;50.174;2022-11-20T14:08:55;100950.06;;;-5.76;43.99
55442;BME280;41313;58.740;50.174;2022-11-20T14:14:20;100965.78;;;-5.95;44.93
55442;BME280;41313;58.740;50.174;2022-11-20T14:19:32;100963.66;;;-5.78;43.75
55442;BME280;41313;58.740;50.174;2022-11-20T14:24:34;100966.72;;;-5.91;44.61
55442;BME280;41313;58.740;50.174;2022-11-20T14:29:37;100968.47;;;-6.22;44.63
55442;BME280;41313;58.740;50.174;2022-11-20T14:34:43;100964.19;;;-6.53;44.29
55442;BME280;41313;58.740;50.174;2022-11-20T14:39:54;100953.81;;;-6.58;44.49
55442;BME280;41313;58.740;50.174;2022-11-20T14:44:59;100954.31;;;-6.70;44.00
55442;BME280;41313;58.740;50.174;2022-11-20T14:50:19;100959.72;;;-6.89;44.32
55442;BME280;41313;58.740;50.174;2022-11-20T14:55:34;100960.00;;;-6.80;44.25
55442;BME280;41313;58.740;50.174;2022-11-20T15:00:36;100942.09;;;-6.80;43.88
55442;BME280;41313;58.740;50.174;2022-11-20T15:05:48;100947.03;;;-6.86;44.11
55442;BME280;41313;58.740;50.174;2022-11-20T15:10:52;100950.75;;;-7.03;44.06
55442;BME280;41313;58.740;50.174;2022-11-20T15:15:57;100955.88;;;-7.03;43.85
55442;BME280;41313;58.740;50.174;2022-11-20T15:21:06;100951.59;;;-7.04;44.37
55442;BME280;41313;58.740;50.174;2022-11-20T15:26:12;100962.81;;;-7.26;44.61
55442;BME280;41313;58.740;50.174;2022-11-20T15:31:23;100962.13;;;-7.21;43.72
55442;BME280;41313;58.740;50.174;2022-11-20T15:36:25;100970.75;;;-7.44;44.09
55442;BME280;41313;58.740;50.174;2022-11-20T15:41:26;100970.91;;;-7.40;43.21
55442;BME280;41313;58.740;50.174;2022-11-20T15:46:31;100975.84;;;-7.44;43.56
55442;BME280;41313;58.740;50.174;2022-11-20T15:51:48;100977.91;;;-7.34;43.83
55442;BME280;41313;58.740;50.174;2022-11-20T15:56:50;100976.41;;;-7.27;43.66
55442;BME280;41313;58.740;50.174;2022-11-20T16:01:55;100976.97;;;-7.36;43.53
55442;BME280;41313;58.740;50.174;2022-11-20T16:06:56;100979.53;;;-7.36;43.50
55442;BME280;41313;58.740;50.174;2022-11-20T16:12:02;100978.22;;;-7.23;43.35
55442;BME280;41313;58.740;50.174;2022-11-20T16:17:07;100975.56;;;-7.26;44.12
55442;BME280;41313;58.740;50.174;2022-11-20T16:22:14;100975.44;;;-7.31;43.21
55442;BME280;41313;58.740;50.174;2022-11-20T16:27:26;100973.09;;;-7.50;43.35
55442;BME280;41313;58.740;50.174;2022-11-20T16:32:34;100979.03;;;-7.51;43.41
55442;BME280;41313;58.740;50.174;2022-11-20T16:37:36;100972.53;;;-7.42;43.47
55442;BME280;41313;58.740;50.174;2022-11-20T16:42:38;100972.19;;;-7.52;43.97
55442;BME280;41313;58.740;50.174;2022-11-20T16:47:40;100970.66;;;-7.73;43.89
55442;BME280;41313;58.740;50.174;2022-11-20T16:52:42;100979.34;;;-7.92;43.88
55442;BME280;41313;58.740;50.174;2022-11-20T16:57:44;100980.66;;;-7.79;42.89
55442;BME280;41313;58.740;50.174;2022-11-20T17:02:48;100983.22;;;-7.79;43.40
55442;BME280;41313;58.740;50.174;2022-11-20T17:07:50;100986.09;;;-7.94;43.16
55442;BME280;41313;58.740;50.174;2022-11-20T17:12:52;100976.75;;;-7.93;43.70
55442;BME280;41313;58.740;50.174;2022-11-20T17:17:54;100977.56;;;-7.94;43.63
55442;BME280;41313;58.740;50.174;2022-11-20T17:22:56;100980.22;;;-7.91;43.36
55442;BME280;41313;58.740;50.174;2022-11-20T17:27:58;100964.53;;;-7.78;42.80
55442;BME280;41313;58.740;50.174;2022-11-20T17:33:01;100977.84;;;-7.87;43.58
55442;BME280;41313;58.740;50.174;2022-11-20T17:38:04;100968.31;;;-7.67;43.45
55442;BME280;41313;58.740;50.174;2022-11-20T17:43:06;100962.31;;;-7.93;43.67
55442;BME280;41313;58.740;50.174;2022-11-20T17:48:10;100961.25;;;-7.99;42.85
55442;BME280;41313;58.740;50.174;2022-11-20T17:53:13;100961.72;;;-8.34;44.15
55442;BME280;41313;58.740;50.174;2022-11-20T17:58:15;100958.59;;;-8.51;43.54
55442;BME280;41313;58.740;50.174;2022-11-20T18:03:16;100959.47;;;-8.50;43.17
55442;BME280;41313;58.740;50.174;2022-11-20T18:08:19;100957.00;;;-8.71;43.50
55442;BME280;41313;58.740;50.174;2022-11-20T18:13:23;100957.16;;;-8.66;42.99
55442;BME280;41313;58.740;50.174;2022-11-20T18:18:45;100963.72;;;-8.73;42.99
55442;BME280;41313;58.740;50.174;2022-11-20T18:23:49;100956.19;;;-8.70;43.14
55442;BME280;41313;58.740;50.174;2022-11-20T18:28:53;100962.50;;;-8.83;43.42
55442;BME280;41313;58.740;50.174;2022-11-20T18:33:55;100954.75;;;-8.86;43.15
55442;BME280;41313;58.740;50.174;2022-11-20T18:38:59;100953.16;;;-8.82;42.70
55442;BME280;41313;58.740;50.174;2022-11-20T18:44:04;100951.00;;;-8.72;42.73
55442;BME280;41313;58.740;50.174;2022-11-20T18:49:25;100941.22;;;-8.61;42.73
55442;BME280;41313;58.740;50.174;2022-11-20T18:54:27;100951.56;;;-8.80;42.45
55442;BME280;41313;58.740;50.174;2022-11-20T18:59:29;100957.13;;;-8.68;42.48
55442;BME280;41313;58.740;50.174;2022-11-20T19:04:32;100936.78;;;-8.42;42.03
55442;BME280;41313;58.740;50.174;2022-11-20T19:09:34;100954.72;;;-8.41;42.73
55442;BME280;41313;58.740;50.174;2022-11-20T19:14:37;100944.25;;;-8.71;43.47
55442;BME280;41313;58.740;50.174;2022-11-20T19:19:39;100945.97;;;-8.92;42.89
55442;BME280;41313;58.740;50.174;2022-11-20T19:24:42;100944.38;;;-8.90;43.21
55442;BME280;41313;58.740;50.174;2022-11-20T19:29:45;100945.75;;;-8.76;42.55
55442;BME280;41313;58.740;50.174;2022-11-20T19:34:48;100940.69;;;-8.75;43.04
55442;BME280;41313;58.740;50.174;2022-11-20T19:39:50;100942.50;;;-8.72;42.91
55442;BME280;41313;58.740;50.174;2022-11-20T19:44:53;100939.81;;;-8.77;42.29
55442;BME280;41313;58.740;50.174;2022-11-20T19:49:56;100939.72;;;-8.78;42.76
55442;BME280;41313;58.740;50.174;2022-11-20T19:54:58;100939.38;;;-8.87;42.93
55442;BME280;41313;58.740;50.174;2022-11-20T19:59:59;100938.84;;;-9.01;42.65
55442;BME280;41313;58.740;50.174;2022-11-20T20:05:01;100930.97;;;-9.07;42.72
55442;BME280;41313;58.740;50.174;2022-11-20T20:10:05;100927.41;;;-9.12;42.68
55442;BME280;41313;58.740;50.174;2022-11-20T20:15:08;100921.06;;;-9.22;42.33
55442;BME280;41313;58.740;50.174;2022-11-20T20:20:10;100915.34;;;-9.17;42.68
55442;BME280;41313;58.740;50.174;2022-11-20T20:25:13;100918.94;;;-9.11;42.89
55442;BME280;41313;58.740;50.174;2022-11-20T20:30:15;100919.47;;;-8.98;42.78
55442;BME280;41313;58.740;50.174;2022-11-20T20:35:16;100926.09;;;-9.01;42.89
55442;BME280;41313;58.740;50.174;2022-11-20T20:40:18;100916.22;;;-9.16;42.57
55442;BME280;41313;58.740;50.174;2022-11-20T20:45:20;100916.50;;;-9.08;43.02
55442;BME280;41313;58.740;50.174;2022-11-20T20:50:22;100909.72;;;-9.08;42.80
55442;BME280;41313;58.740;50.174;2022-11-20T20:55:23;100906.47;;;-9.26;42.62
55442;BME280;41313;58.740;50.174;2022-11-20T21:00:26;100911.25;;;-9.13;43.03
55442;BME280;41313;58.740;50.174;2022-11-20T21:05:27;100907.97;;;-9.31;42.91
55442;BME280;41313;58.740;50.174;2022-11-20T21:10:30;100901.84;;;-9.36;42.96
55442;BME280;41313;58.740;50.174;2022-11-20T21:15:32;100902.53;;;-9.41;42.42
55442;BME280;41313;58.740;50.174;2022-11-20T21:20:34;100895.59;;;-9.45;42.60
55442;BME280;41313;58.740;50.174;2022-11-20T21:25:54;100891.94;;;-9.51;42.37
55442;BME280;41313;58.740;50.174;2022-11-20T21:31:10;100894.16;;;-9.59;42.71
55442;BME280;41313;58.740;50.174;2022-11-20T21:36:16;100895.16;;;-9.76;42.49
55442;BME280;41313;58.740;50.174;2022-11-20T21:41:18;100898.53;;;-9.77;42.68
55442;BME280;41313;58.740;50.174;2022-11-20T21:46:20;100900.00;;;-9.82;42.55
55442;BME280;41313;58.740;50.174;2022-11-20T21:51:25;100899.88;;;-9.86;42.18
55442;BME280;41313;58.740;50.174;2022-11-20T21:56:27;100889.47;;;-9.92;42.43
55442;BME280;41313;58.740;50.174;2022-11-20T22:01:29;100886.22;;;-9.88;42.36
55442;BME280;41313;58.740;50.174;2022-11-20T22:06:33;100894.13;;;-9.81;42.76
55442;BME280;41313;58.740;50.174;2022-11-20T22:11:35;100890.53;;;-9.87;42.59
55442;BME280;41313;58.740;50.174;2022-11-20T22:16:37;100892.75;;;-9.73;42.46
55442;BME280;41313;58.740;50.174;2022-11-20T22:21:39;100875.53;;;-9.58;42.43
55442;BME280;41313;58.740;50.174;2022-11-20T22:26:42;100888.47;;;-9.74;42.43
55442;BME280;41313;58.740;50.174;2022-11-20T22:31:44;100884.75;;;-9.82;42.38
55442;BME280;41313;58.740;50.174;2022-11-20T22:36:46;100874.81;;;-9.76;42.37
55442;BME280;41313;58.740;50.174;2022-11-20T22:41:48;100880.13;;;-9.70;41.74
55442;BME280;41313;58.740;50.174;2022-11-20T22:46:50;100878.78;;;-9.83;41.97
55442;BME280;41313;58.740;50.174;2022-11-20T22:51:52;100873.94;;;-9.98;42.18
55442;BME280;41313;58.740;50.174;2022-11-20T22:56:54;100871.72;;;-9.90;42.00
55442;BME280;41313;58.740;50.174;2022-11-20T23:01:56;100867.31;;;-9.94;42.15
55442;BME280;41313;58.740;50.174;2022-11-20T23:06:58;100862.53;;;-10.07;42.47
55442;BME280;41313;58.740;50.174;2022-11-20T23:12:00;100865.84;;;-10.09;42.66
55442;BME280;41313;58.740;50.174;2022-11-20T23:17:02;100868.50;;;-9.86;41.92
55442;BME280;41313;58.740;50.174;2022-11-20T23:22:04;100852.25;;;-9.90;41.59
55442;BME280;41313;58.740;50.174;2022-11-20T23:27:06;100857.38;;;-10.09;42.57
55442;BME280;41313;58.740;50.174;2022-11-20T23:32:08;100857.56;;;-10.25;43.50
55442;BME280;41313;58.740;50.174;2022-11-20T23:37:10;100860.09;;;-10.25;43.39
55442;BME280;41313;58.740;50.174;2022-11-20T23:42:12;100852.00;;;-10.17;43.42
55442;BME280;41313;58.740;50.174;2022-11-20T23:47:14;100861.09;;;-10.43;43.46
55442;BME280;41313;58.740;50.174;2022-11-20T23:52:16;100865.69;;;-10.53;43.28
55442;BME280;41313;58.740;50.174;2022-11-20T23:57:18;100866.66;;;-10.51;42.99
